createdAt,value
2023-03-17T00:00:44.899Z,99274.80
2023-03-17T00:03:53.682Z,99269.60
2023-03-17T00:07:02.661Z,99271.60
2023-03-17T00:10:18.727Z,99273.80
2023-03-17T00:13:28.212Z,99280.00
2023-03-17T00:16:41.859Z,99280.40
2023-03-17T00:19:50.428Z,99277.80
2023-03-17T00:23:04.510Z,99277.40
2023-03-17T00:26:14.437Z,99275.80
2023-03-17T00:29:22.760Z,99271.00
2023-03-17T00:32:31.228Z,99260.80
2023-03-17T00:35:40.524Z,99264.80
2023-03-17T00:38:49.842Z,99261.40
2023-03-17T00:41:58.304Z,99257.20
2023-03-17T00:45:08.117Z,99252.40
2023-03-17T00:48:20.987Z,99251.20
2023-03-17T00:51:29.366Z,99254.40
2023-03-17T00:54:37.150Z,99252.00
2023-03-17T00:57:48.659Z,99255.20
2023-03-17T01:00:57.197Z,99256.00
2023-03-17T01:04:05.787Z,99257.00
2023-03-17T01:07:15.635Z,99256.80
2023-03-17T01:10:26.127Z,99249.20
2023-03-17T01:13:34.539Z,99255.20
2023-03-17T01:16:43.365Z,99257.60
2023-03-17T01:19:51.881Z,99261.20
2023-03-17T01:23:00.581Z,99261.40
2023-03-17T01:26:09.637Z,99258.60
2023-03-17T01:29:18.286Z,99258.40
2023-03-17T01:32:26.300Z,99259.20
2023-03-17T01:35:35.314Z,99261.00
2023-03-17T01:38:43.929Z,99266.20
2023-03-17T01:41:56.321Z,99265.20
2023-03-17T01:45:09.147Z,99272.60
2023-03-17T01:48:19.088Z,99259.20
2023-03-17T01:51:36.006Z,99242.00
2023-03-17T01:54:50.625Z,99247.20
2023-03-17T01:58:00.444Z,99247.00
2023-03-17T02:01:08.111Z,99259.20
2023-03-17T02:04:17.961Z,99259.00
2023-03-17T02:07:28.122Z,99261.60
2023-03-17T02:10:34.384Z,99274.60
2023-03-17T02:13:44.854Z,99284.00
2023-03-17T02:16:52.872Z,99287.00
2023-03-17T02:20:20.512Z,99283.80
2023-03-17T02:23:28.574Z,99286.80
2023-03-17T02:26:39.927Z,99292.40
2023-03-17T02:29:49.039Z,99297.80
2023-03-17T02:32:59.639Z,99297.00
2023-03-17T02:36:09.688Z,99296.00
2023-03-17T02:39:17.785Z,99289.60
2023-03-17T02:42:25.743Z,99289.20
2023-03-17T02:45:34.393Z,99284.60
2023-03-17T02:48:44.248Z,99279.60
2023-03-17T02:51:52.559Z,99282.00
2023-03-17T02:55:00.585Z,99276.20
2023-03-17T02:58:08.739Z,99278.60
2023-03-17T03:01:16.953Z,99284.40
2023-03-17T03:04:26.367Z,99285.00
2023-03-17T03:07:34.905Z,99279.00
2023-03-17T03:10:43.756Z,99275.60
2023-03-17T03:13:52.394Z,99277.40
2023-03-17T03:17:00.257Z,99278.00
2023-03-17T03:20:11.609Z,99276.60
2023-03-17T03:23:19.989Z,99279.80
2023-03-17T03:26:28.507Z,99277.40
2023-03-17T03:29:36.483Z,99280.60
2023-03-17T03:32:45.175Z,99279.40
2023-03-17T03:35:53.834Z,99280.80
2023-03-17T03:39:02.305Z,99277.60
2023-03-17T03:42:10.756Z,99283.40
2023-03-17T03:45:19.051Z,99274.00
2023-03-17T03:48:26.987Z,99272.60
2023-03-17T03:51:35.075Z,99273.60
2023-03-17T03:54:43.667Z,99272.00
2023-03-17T03:57:52.040Z,99271.80
2023-03-17T04:00:59.884Z,99272.20
2023-03-17T04:04:07.883Z,99276.60
2023-03-17T04:07:16.565Z,99275.60
2023-03-17T04:10:24.710Z,99271.20
2023-03-17T04:13:32.433Z,99276.60
2023-03-17T04:16:43.195Z,99275.40
2023-03-17T04:19:52.424Z,99272.40
2023-03-17T04:23:00.172Z,99274.40
2023-03-17T04:26:08.750Z,99273.00
2023-03-17T04:29:17.120Z,99274.00
2023-03-17T04:32:27.142Z,99275.20
2023-03-17T04:35:36.458Z,99264.00
2023-03-17T04:38:45.498Z,99271.00
2023-03-17T04:41:53.368Z,99279.40
2023-03-17T04:45:01.096Z,99282.20
2023-03-17T04:48:09.594Z,99285.00
2023-03-17T04:51:17.585Z,99290.00
2023-03-17T04:54:25.767Z,99287.60
2023-03-17T04:57:33.774Z,99291.80
2023-03-17T05:00:42.053Z,99287.00
2023-03-17T05:03:50.365Z,99292.00
2023-03-17T05:06:58.710Z,99290.80
2023-03-17T05:10:07.918Z,99288.40
2023-03-17T05:13:16.217Z,99288.60
2023-03-17T05:16:24.558Z,99296.40
2023-03-17T05:19:32.574Z,99287.80
2023-03-17T05:22:40.458Z,99285.40
2023-03-17T05:25:48.966Z,99289.60
2023-03-17T05:28:57.793Z,99291.00
2023-03-17T05:32:05.890Z,99291.40
2023-03-17T05:35:15.129Z,99284.40
2023-03-17T05:38:23.412Z,99274.40
2023-03-17T05:41:31.707Z,99281.00
2023-03-17T05:44:40.136Z,99277.60
2023-03-17T05:47:48.648Z,99291.60
2023-03-17T05:50:56.312Z,99292.00
2023-03-17T05:54:04.260Z,99296.60
2023-03-17T05:57:13.160Z,99291.60
2023-03-17T06:00:23.751Z,99285.80
2023-03-17T06:03:32.564Z,99290.80
2023-03-17T06:06:41.379Z,99298.80
2023-03-17T06:09:49.974Z,99292.00
2023-03-17T06:12:59.057Z,99297.40
2023-03-17T06:16:08.088Z,99300.00
2023-03-17T06:19:16.867Z,99298.00
2023-03-17T06:22:25.035Z,99294.80
2023-03-17T06:25:33.808Z,99302.20
2023-03-17T06:28:42.101Z,99308.40
2023-03-17T06:31:51.482Z,99308.00
2023-03-17T06:34:59.397Z,99303.80
2023-03-17T06:38:07.701Z,99311.20
2023-03-17T06:41:16.539Z,99311.20
2023-03-17T06:44:25.007Z,99312.80
2023-03-17T06:47:34.334Z,99319.40
2023-03-17T06:50:43.048Z,99318.00
2023-03-17T06:53:51.440Z,99314.00
2023-03-17T06:57:00.063Z,99324.20
2023-03-17T07:00:13.111Z,99327.80
2023-03-17T07:03:22.614Z,99327.00
2023-03-17T07:06:31.440Z,99328.80
2023-03-17T07:09:40.193Z,99325.80
2023-03-17T07:12:49.805Z,99329.40
2023-03-17T07:16:00.436Z,99334.80
2023-03-17T07:19:10.526Z,99329.40
2023-03-17T07:22:21.154Z,99338.00
2023-03-17T07:25:29.590Z,99342.20
2023-03-17T07:28:38.349Z,99351.80
2023-03-17T07:31:47.373Z,99349.20
2023-03-17T07:34:55.334Z,99344.60
2023-03-17T07:38:04.024Z,99360.00
2023-03-17T07:41:12.595Z,99356.60
2023-03-17T07:44:21.222Z,99350.60
2023-03-17T07:47:30.551Z,99355.20
2023-03-17T07:50:39.984Z,99350.60
2023-03-17T07:53:52.138Z,99345.80
2023-03-17T07:57:00.694Z,99354.40
2023-03-17T08:00:10.947Z,99345.80
2023-03-17T08:03:19.614Z,99341.00
2023-03-17T08:06:28.924Z,99340.80
2023-03-17T08:09:37.638Z,99344.60
2023-03-17T08:12:51.883Z,99348.40
2023-03-17T08:16:00.321Z,99340.40
2023-03-17T08:19:08.684Z,99343.40
2023-03-17T08:22:17.060Z,99335.20
2023-03-17T08:25:25.068Z,99331.20
2023-03-17T08:28:34.080Z,99333.20
2023-03-17T08:31:45.192Z,99330.60
2023-03-17T08:34:57.867Z,99328.20
2023-03-17T08:38:06.714Z,99333.60
2023-03-17T08:41:19.019Z,99332.00
2023-03-17T08:44:27.460Z,99331.60
2023-03-17T08:47:36.428Z,99334.80
2023-03-17T08:50:46.479Z,99334.40
2023-03-17T08:53:52.970Z,99330.80
2023-03-17T08:57:04.155Z,99326.40
2023-03-17T09:00:16.376Z,99336.60
2023-03-17T09:03:25.110Z,99337.20
2023-03-17T09:06:33.261Z,99336.60
2023-03-17T09:09:42.769Z,99335.00
2023-03-17T09:12:51.996Z,99332.00
2023-03-17T09:16:01.513Z,99334.20
2023-03-17T09:19:10.008Z,99331.60
2023-03-17T09:22:20.091Z,99337.60
2023-03-17T09:25:29.157Z,99331.80
2023-03-17T09:28:37.621Z,99328.00
2023-03-17T09:31:45.562Z,99326.60
2023-03-17T09:34:56.340Z,99330.80
2023-03-17T09:38:04.278Z,99335.60
2023-03-17T09:41:49.622Z,99334.20
2023-03-17T09:45:15.743Z,99326.80
2023-03-17T09:48:46.481Z,99322.80
2023-03-17T09:51:55.073Z,99317.40
2023-03-17T09:55:08.363Z,99318.80
2023-03-17T09:58:17.190Z,99309.40
2023-03-17T10:01:25.578Z,99310.00
2023-03-17T10:04:34.152Z,99300.00
2023-03-17T10:07:51.101Z,99288.80
2023-03-17T10:11:11.529Z,99299.20
2023-03-17T10:14:39.777Z,99296.60
2023-03-17T10:17:48.402Z,99297.00
2023-03-17T10:21:03.253Z,99284.20
2023-03-17T10:24:13.777Z,99286.60
2023-03-17T10:27:22.553Z,99280.40
2023-03-17T10:30:34.716Z,99279.80
2023-03-17T10:33:43.796Z,99276.40
2023-03-17T10:36:55.769Z,99283.00
2023-03-17T10:40:05.578Z,99277.20
2023-03-17T10:43:22.876Z,99277.20
2023-03-17T10:46:31.967Z,99276.00
2023-03-17T10:49:41.551Z,99273.40
2023-03-17T10:52:53.712Z,99266.00
2023-03-17T10:56:11.922Z,99266.20
2023-03-17T11:02:52.718Z,99262.00
2023-03-17T11:06:05.651Z,99259.20
2023-03-17T11:09:21.759Z,99243.20
2023-03-17T11:12:36.756Z,99240.60
2023-03-17T11:15:51.602Z,99242.00
2023-03-17T11:19:04.312Z,99238.00
2023-03-17T11:22:18.380Z,99233.80
2023-03-17T11:25:27.996Z,99221.80
2023-03-17T11:28:42.536Z,99225.20
2023-03-17T11:32:02.718Z,99219.80
2023-03-17T11:35:35.997Z,99219.80
2023-03-17T11:38:55.254Z,99209.60
2023-03-17T11:42:18.074Z,99197.60
2023-03-17T11:45:35.388Z,99191.40
2023-03-17T11:48:57.870Z,99185.80
2023-03-17T11:52:22.390Z,99181.60
2023-03-17T11:55:42.151Z,99173.80
2023-03-17T11:58:57.172Z,99168.80
2023-03-17T12:02:22.204Z,99158.80
2023-03-17T12:05:32.724Z,99161.20
2023-03-17T12:08:48.430Z,99152.20
2023-03-17T12:11:58.266Z,99153.60
2023-03-17T12:15:15.007Z,99158.60
2023-03-17T12:18:30.924Z,99153.00
2023-03-17T12:21:46.761Z,99144.40
2023-03-17T12:25:10.881Z,99143.40
2023-03-17T12:28:26.481Z,99144.80
2023-03-17T12:31:40.739Z,99148.60
2023-03-17T12:34:57.401Z,99145.20
2023-03-17T12:38:12.318Z,99137.80
2023-03-17T12:41:44.638Z,99138.20
2023-03-17T12:45:26.424Z,99128.00
2023-03-17T12:48:58.942Z,99129.20
2023-03-17T12:52:41.969Z,99118.00
2023-03-17T12:55:54.033Z,99115.20
2023-03-17T12:59:08.822Z,99114.60
2023-03-17T13:02:39.780Z,99125.20
2023-03-17T13:05:55.724Z,99116.20
2023-03-17T13:09:45.970Z,99117.20
2023-03-17T13:13:15.367Z,99120.20
2023-03-17T13:16:36.537Z,99115.00
2023-03-17T13:20:04.780Z,99108.00
2023-03-17T13:23:22.410Z,99108.20
2023-03-17T13:27:01.122Z,99108.20
2023-03-17T13:30:59.133Z,99107.80
2023-03-17T13:34:19.525Z,99111.20
2023-03-17T13:37:36.651Z,99113.80
2023-03-17T13:40:59.336Z,99114.40
2023-03-17T13:44:39.760Z,99113.80
2023-03-17T13:47:48.303Z,99104.20
2023-03-17T13:51:04.624Z,99098.80
2023-03-17T13:54:30.224Z,99101.80
2023-03-17T13:57:42.679Z,99093.00
2023-03-17T14:01:00.412Z,99097.20
2023-03-17T14:04:19.136Z,99078.80
2023-03-17T14:07:32.375Z,99078.80
2023-03-17T14:10:40.665Z,99076.80
2023-03-17T14:14:00.705Z,99066.80
2023-03-17T14:17:18.323Z,99066.60
2023-03-17T14:20:29.608Z,99060.40
2023-03-17T14:23:37.659Z,99057.80
2023-03-17T14:26:47.998Z,99062.20
2023-03-17T14:29:56.087Z,99051.00
2023-03-17T14:33:08.112Z,99051.20
2023-03-17T14:36:17.793Z,99048.00
2023-03-17T14:39:29.909Z,99032.20
2023-03-17T14:42:37.806Z,99027.00
2023-03-17T14:45:53.797Z,99028.40
2023-03-17T14:49:06.791Z,99029.40
2023-03-17T14:52:27.071Z,99021.20
2023-03-17T14:55:44.313Z,99025.80
2023-03-17T14:58:55.388Z,99018.40
2023-03-17T15:02:17.335Z,99016.60
2023-03-17T15:05:37.514Z,99014.60
2023-03-17T15:08:47.204Z,99010.80
2023-03-17T15:11:55.413Z,99004.40
2023-03-17T15:15:10.596Z,99001.20
2023-03-17T15:18:21.390Z,98986.60
2023-03-17T15:21:42.030Z,98987.80
2023-03-17T15:25:00.165Z,98979.40
2023-03-17T15:28:16.038Z,98982.60
2023-03-17T15:31:28.472Z,98983.40
2023-03-17T15:34:36.655Z,98988.20
2023-03-17T15:37:45.052Z,98982.20
2023-03-17T15:40:53.011Z,98986.40
2023-03-17T15:44:00.813Z,98986.00
2023-03-17T15:47:09.491Z,98983.40
2023-03-17T15:50:25.122Z,98981.60
2023-03-17T15:53:33.408Z,98987.80
2023-03-17T15:56:46.145Z,98989.60
2023-03-17T15:59:54.595Z,98982.00
2023-03-17T16:03:13.220Z,98983.20
2023-03-17T16:06:23.386Z,98975.00
2023-03-17T16:09:31.357Z,98984.40
2023-03-17T16:12:39.680Z,98978.40
2023-03-17T16:15:53.985Z,98978.20
2023-03-17T16:19:02.602Z,98978.20
2023-03-17T16:22:25.925Z,98982.80
2023-03-17T16:25:37.653Z,98983.60
2023-03-17T16:28:51.764Z,98988.20
2023-03-17T16:31:59.677Z,98990.60
2023-03-17T16:35:11.700Z,98990.60
2023-03-17T16:38:22.886Z,98987.20
2023-03-17T16:41:35.938Z,98988.80
2023-03-17T16:44:43.813Z,98984.40
2023-03-17T16:47:52.407Z,98983.20
2023-03-17T16:51:00.963Z,98987.40
2023-03-17T16:54:09.094Z,98981.20
2023-03-17T16:57:17.657Z,98991.00
2023-03-17T17:00:29.573Z,98990.20
2023-03-17T17:03:38.335Z,98994.40
2023-03-17T17:06:46.459Z,98988.60
2023-03-17T17:09:54.534Z,98979.60
2023-03-17T17:13:04.288Z,98978.20
2023-03-17T17:16:22.772Z,98984.80
2023-03-17T17:19:30.919Z,98989.60
2023-03-17T17:22:39.095Z,98993.00
2023-03-17T17:25:47.624Z,98987.20
2023-03-17T17:28:55.475Z,98992.40
2023-03-17T17:32:03.648Z,98987.60
2023-03-17T17:35:13.443Z,98996.80
2023-03-17T17:38:28.299Z,98990.20
2023-03-17T17:41:36.331Z,98986.20
2023-03-17T17:44:44.371Z,98983.40
2023-03-17T17:47:52.559Z,98983.20
2023-03-17T17:51:01.853Z,98982.60
2023-03-17T17:54:10.405Z,98978.40
2023-03-17T17:57:19.067Z,98980.40
2023-03-17T18:00:27.898Z,98978.40
2023-03-17T18:03:35.991Z,98983.60
2023-03-17T18:06:44.904Z,98988.20
2023-03-17T18:09:52.845Z,98987.40
2023-03-17T18:13:01.221Z,98990.60
2023-03-17T18:16:10.851Z,98984.20
2023-03-17T18:19:19.522Z,98985.00
2023-03-17T18:22:27.952Z,98989.20
2023-03-17T18:25:37.236Z,98991.00
2023-03-17T18:28:45.859Z,98986.40
2023-03-17T18:31:56.246Z,98985.00
2023-03-17T18:35:09.604Z,98982.40
2023-03-17T18:38:17.491Z,98980.40
2023-03-17T18:41:25.864Z,98977.60
2023-03-17T18:44:33.647Z,98978.20
2023-03-17T18:47:42.276Z,98977.00
2023-03-17T18:50:50.895Z,98981.60
2023-03-17T18:53:59.435Z,98981.80
2023-03-17T18:57:07.448Z,98989.40
2023-03-17T19:00:18.779Z,98987.00
2023-03-17T19:03:27.004Z,98990.00
2023-03-17T19:06:39.456Z,98986.40
2023-03-17T19:09:48.373Z,98987.20
2023-03-17T19:12:56.404Z,98979.60
2023-03-17T19:16:04.970Z,98984.20
2023-03-17T19:19:13.076Z,98981.60
2023-03-17T19:22:21.565Z,98976.80
2023-03-17T19:25:29.883Z,98981.80
2023-03-17T19:28:38.202Z,98984.60
2023-03-17T19:31:48.475Z,98986.20
2023-03-17T19:34:57.374Z,98982.00
2023-03-17T19:38:05.786Z,98976.20
2023-03-17T19:41:13.811Z,98970.00
2023-03-17T19:44:21.891Z,98969.20
2023-03-17T19:47:30.097Z,98963.00
2023-03-17T19:50:38.264Z,98963.60
2023-03-17T19:53:46.636Z,98962.00
2023-03-17T19:56:55.515Z,98965.60
2023-03-17T20:00:04.085Z,98963.80
2023-03-17T20:03:13.000Z,98956.80
2023-03-17T20:06:21.130Z,98955.20
2023-03-17T20:09:31.195Z,98948.80
2023-03-17T20:12:39.516Z,98949.40
2023-03-17T20:15:49.723Z,98946.00
2023-03-17T20:18:57.664Z,98945.20
2023-03-17T20:22:08.850Z,98940.20
2023-03-17T20:25:17.481Z,98941.80
2023-03-17T20:28:27.279Z,98935.20
2023-03-17T20:31:37.417Z,98937.00
2023-03-17T20:34:46.848Z,98933.20
2023-03-17T20:37:57.351Z,98932.60
2023-03-17T20:41:13.785Z,98926.40
2023-03-17T20:44:23.263Z,98926.20
2023-03-17T20:47:31.193Z,98920.80
2023-03-17T20:50:39.513Z,98919.60
2023-03-17T20:53:51.037Z,98923.80
2023-03-17T20:56:59.553Z,98919.80
2023-03-17T21:00:10.444Z,98917.20
2023-03-17T21:03:19.465Z,98911.20
2023-03-17T21:06:29.006Z,98910.60
2023-03-17T21:09:37.168Z,98910.20
2023-03-17T21:12:45.762Z,98914.40
2023-03-17T21:15:53.644Z,98911.60
2023-03-17T21:19:02.365Z,98907.80
2023-03-17T21:22:11.351Z,98903.80
2023-03-17T21:25:20.549Z,98911.80
2023-03-17T21:28:29.258Z,98913.80
2023-03-17T21:31:38.600Z,98910.40
2023-03-17T21:34:47.218Z,98908.80
2023-03-17T21:37:55.269Z,98908.60
2023-03-17T21:41:21.766Z,98910.60
2023-03-17T21:44:29.832Z,98906.80
2023-03-17T21:47:37.705Z,98911.40
2023-03-17T21:50:49.000Z,98918.80
2023-03-17T21:53:56.838Z,98909.80
2023-03-17T21:57:04.886Z,98908.80
2023-03-17T22:00:17.114Z,98912.40
2023-03-17T22:03:25.267Z,98913.00
2023-03-17T22:06:33.538Z,98913.00
2023-03-17T22:09:42.754Z,98917.20
2023-03-17T22:12:50.889Z,98918.20
2023-03-17T22:16:00.915Z,98919.80
2023-03-17T22:19:10.156Z,98915.60
2023-03-17T22:22:20.565Z,98907.40
2023-03-17T22:25:28.719Z,98909.40
2023-03-17T22:28:37.911Z,98910.80
2023-03-17T22:31:45.731Z,98915.20
2023-03-17T22:34:54.212Z,98909.00
2023-03-17T22:38:02.329Z,98909.60
2023-03-17T22:41:13.976Z,98908.60
2023-03-17T22:44:22.143Z,98900.00
2023-03-17T22:47:30.242Z,98901.60
2023-03-17T22:50:38.033Z,98905.40
2023-03-17T22:53:46.577Z,98900.60
2023-03-17T22:56:54.240Z,98897.40
2023-03-17T23:00:03.814Z,98895.20
2023-03-17T23:03:12.238Z,98895.80
2023-03-17T23:06:21.724Z,98900.60
2023-03-17T23:09:30.305Z,98900.80
2023-03-17T23:12:39.433Z,98907.00
2023-03-17T23:15:47.511Z,98907.20
2023-03-17T23:18:55.746Z,98900.40
2023-03-17T23:22:03.784Z,98902.20
2023-03-17T23:25:13.823Z,98892.20
2023-03-17T23:28:20.171Z,98894.80
2023-03-17T23:31:28.131Z,98901.40
2023-03-17T23:34:36.297Z,98901.80
2023-03-17T23:37:44.960Z,98900.20
2023-03-17T23:40:56.781Z,98898.00
2023-03-17T23:44:05.736Z,98891.80
2023-03-17T23:47:14.764Z,98884.60
2023-03-17T23:50:23.749Z,98884.80
2023-03-17T23:53:31.720Z,98877.20
2023-03-17T23:56:39.846Z,98878.20
2023-03-17T23:59:47.825Z,98879.60
